Time;durP1;ratioP1;P1;durP2;ratioP2;P2;SDS_P1;SDS_P2;PMS_P1;PMS_P2;Temp;Humidity;BMP_temperature;BMP_pressure;BME280_temperature;BME280_humidity;BME280_pressure;Samples;Min_cycle;Max_cycle;Signal;HPM_P1;HPM_P2
2023/03/02 00:02:21;;;;;;;109.60;56.60;;;;;;;0.57;75.96;100985.08;103251;1252;138636;-69
2023/03/02 00:05:13;;;;;;;103.30;58.60;;;;;;;0.55;76.05;100981.63;103888;1253;1002892;-70
2023/03/02 00:07:50;;;;;;;107.20;57.70;;;;;;;0.54;76.18;100980.21;104529;1254;139194;-70
2023/03/02 00:10:18;;;;;;;108.90;59.30;;;;;;;0.51;76.19;100985.11;103301;1253;1002611;-70
2023/03/02 00:12:45;;;;;;;111.00;60.50;;;;;;;0.50;76.24;100982.69;103159;1253;138855;-69
2023/03/02 00:15:13;;;;;;;109.70;60.70;;;;;;;0.47;76.22;100985.38;103294;1258;96456;-69
2023/03/02 00:17:43;;;;;;;108.70;60.30;;;;;;;0.44;76.29;100982.92;102709;1257;1002841;-69
2023/03/02 00:20:15;;;;;;;118.90;61.50;;;;;;;0.43;76.39;100984.27;103110;1257;138729;-72
2023/03/02 00:22:48;;;;;;;121.20;63.00;;;;;;;0.41;76.49;100981.50;103349;1253;110969;-69
2023/03/02 00:25:17;;;;;;;106.30;59.30;;;;;;;0.41;76.57;100978.58;103656;1257;138492;-69
2023/03/02 00:28:05;;;;;;;118.40;61.30;;;;;;;0.39;76.51;100978.38;103321;1254;96339;-70
2023/03/02 00:30:34;;;;;;;108.80;62.20;;;;;;;0.37;76.57;100976.98;103182;1258;140494;-69
2023/03/02 00:33:05;;;;;;;112.40;61.50;;;;;;;0.36;76.60;100978.81;102360;1253;1002933;-69
2023/03/02 00:35:52;;;;;;;112.90;60.50;;;;;;;0.33;76.57;100978.91;103255;1254;109893;-69
2023/03/02 00:38:20;;;;;;;110.70;60.00;;;;;;;0.30;76.54;100980.41;103199;1254;138388;-69
2023/03/02 00:40:51;;;;;;;109.20;58.00;;;;;;;0.28;76.58;100974.20;103086;1260;96349;-70
2023/03/02 00:43:21;;;;;;;111.90;59.60;;;;;;;0.26;76.60;100971.25;103188;1254;138422;-69
2023/03/02 00:45:48;;;;;;;115.70;60.30;;;;;;;0.24;76.75;100977.03;103674;1254;96511;-70
2023/03/02 00:48:30;;;;;;;114.80;60.40;;;;;;;0.21;77.02;100975.95;103177;1254;138970;-69
2023/03/02 00:51:00;;;;;;;119.20;62.10;;;;;;;0.17;77.09;100974.48;103212;1260;107154;-69
2023/03/02 00:53:28;;;;;;;108.00;59.90;;;;;;;0.16;77.09;100974.77;103333;1257;96544;-69
2023/03/02 00:56:15;;;;;;;107.60;57.30;;;;;;;0.14;77.22;100972.17;103198;1257;138900;-70
2023/03/02 00:58:46;;;;;;;111.30;59.40;;;;;;;0.13;77.44;100972.52;102455;1254;1003657;-70
2023/03/02 01:01:14;;;;;;;110.30;59.00;;;;;;;0.11;77.39;100970.76;103108;1254;139564;-70
2023/03/02 01:03:47;;;;;;;106.70;57.80;;;;;;;0.09;77.31;100971.91;103186;1254;108430;-69
2023/03/02 01:06:21;;;;;;;115.20;61.20;;;;;;;0.10;77.52;100973.80;103111;1259;138716;-69
2023/03/02 01:08:48;;;;;;;106.50;58.60;;;;;;;0.08;77.59;100971.37;103305;1254;108537;-70
2023/03/02 01:11:22;;;;;;;116.40;60.80;;;;;;;0.05;77.72;100973.38;103343;1257;96562;-69
2023/03/02 01:13:51;;;;;;;111.00;61.60;;;;;;;0.03;77.79;100971.61;103207;1255;138411;-70
2023/03/02 01:16:18;;;;;;;114.10;60.40;;;;;;;0.02;77.94;100969.53;103190;1254;107659;-70
2023/03/02 01:18:49;;;;;;;114.10;61.00;;;;;;;-0.02;78.07;100961.39;103205;1257;138763;-69
2023/03/02 01:21:25;;;;;;;110.30;60.40;;;;;;;-0.04;78.09;100958.45;101751;1254;1015479;-69
2023/03/02 01:23:56;;;;;;;112.20;61.20;;;;;;;-0.06;78.17;100955.85;103303;1254;96510;-70
2023/03/02 01:26:28;;;;;;;109.20;59.20;;;;;;;-0.07;78.08;100953.94;102536;1254;1002840;-70
2023/03/02 01:28:55;;;;;;;115.20;59.90;;;;;;;-0.09;78.15;100956.99;103233;1254;108249;-70
2023/03/02 01:31:34;;;;;;;106.20;59.80;;;;;;;-0.11;78.13;100954.55;103122;1254;138678;-70
2023/03/02 01:34:02;;;;;;;108.60;59.70;;;;;;;-0.12;78.32;100950.76;103204;1259;108324;-70
2023/03/02 01:36:32;;;;;;;112.40;61.60;;;;;;;-0.14;78.26;100949.02;103186;1258;138822;-70
2023/03/02 01:39:00;;;;;;;115.80;63.10;;;;;;;-0.15;78.48;100948.98;103306;1257;109059;-69
2023/03/02 01:41:37;;;;;;;110.90;60.20;;;;;;;-0.16;78.52;100944.20;102532;1257;1003614;-70
2023/03/02 01:44:28;;;;;;;110.50;59.60;;;;;;;-0.17;78.57;100938.88;103194;1257;138863;-69
2023/03/02 01:46:55;;;;;;;107.80;59.40;;;;;;;-0.18;78.39;100938.33;103300;1254;108026;-69
2023/03/02 01:49:23;;;;;;;112.10;61.80;;;;;;;-0.18;78.72;100938.48;103221;1253;138682;-70
2023/03/02 01:52:00;;;;;;;109.70;57.80;;;;;;;-0.17;78.70;100935.45;103364;1253;109881;-70
2023/03/02 01:54:30;;;;;;;103.70;56.80;;;;;;;-0.19;78.73;100938.96;102394;1258;1003467;-70
2023/03/02 01:57:04;;;;;;;108.60;57.80;;;;;;;-0.20;79.15;100935.86;101683;1258;1005288;-70
2023/03/02 01:59:33;;;;;;;102.50;55.00;;;;;;;-0.16;79.27;100930.69;103416;1254;108780;-69
2023/03/02 02:02:04;;;;;;;98.80;54.20;;;;;;;-0.12;79.46;100931.80;102995;1256;138763;-68
2023/03/02 02:04:34;;;;;;;92.80;48.20;;;;;;;-0.06;79.68;100935.67;103311;1254;109435;-68
2023/03/02 02:07:07;;;;;;;84.60;44.90;;;;;;;-0.00;79.74;100940.76;102391;1255;1002966;-68
2023/03/02 02:09:38;;;;;;;76.80;41.50;;;;;;;0.04;79.79;100943.94;103283;1256;96476;-69
2023/03/02 02:12:14;;;;;;;79.80;41.70;;;;;;;0.08;79.96;100943.67;103038;1256;138352;-68
2023/03/02 02:14:42;;;;;;;74.80;38.90;;;;;;;0.13;80.08;100947.55;103897;1255;95464;-68
2023/03/02 02:17:11;;;;;;;75.60;37.50;;;;;;;0.19;80.20;100950.92;103033;1256;110733;-68
2023/03/02 02:19:52;;;;;;;69.80;34.40;;;;;;;0.21;80.15;100953.55;103119;1256;138374;-69
2023/03/02 02:22:32;;;;;;;63.20;31.90;;;;;;;0.25;80.19;100950.36;103454;1255;96423;-68
2023/03/02 02:25:11;;;;;;;63.60;30.90;;;;;;;0.32;80.21;100949.65;102411;1258;1002868;-68
2023/03/02 02:27:42;;;;;;;61.30;30.20;;;;;;;0.36;80.22;100944.42;104341;1256;94604;-69
2023/03/02 02:30:14;;;;;;;62.60;29.90;;;;;;;0.39;80.12;100940.23;102949;1260;138425;-68
2023/03/02 02:32:48;;;;;;;64.60;30.30;;;;;;;0.42;80.10;100940.96;104429;1254;107749;-69
2023/03/02 02:35:19;;;;;;;61.60;28.90;;;;;;;0.45;80.17;100939.81;103227;1256;96992;-69
2023/03/02 02:37:51;;;;;;;64.90;30.60;;;;;;;0.48;80.09;100936.80;103244;1256;138144;-69
2023/03/02 02:40:23;;;;;;;61.90;30.30;;;;;;;0.53;80.30;100935.52;103076;1256;96478;-69
2023/03/02 02:42:54;;;;;;;61.30;30.40;;;;;;;0.57;80.20;100928.28;102437;1254;1002920;-69
2023/03/02 02:45:28;;;;;;;63.10;30.40;;;;;;;0.63;80.19;100923.74;103303;1254;108658;-69
2023/03/02 02:47:59;;;;;;;58.10;29.40;;;;;;;0.67;80.07;100917.82;103172;1256;96972;-69
2023/03/02 02:50:38;;;;;;;57.50;29.90;;;;;;;0.71;80.16;100916.88;103743;1254;107810;-69
2023/03/02 02:53:12;;;;;;;60.90;30.00;;;;;;;0.76;80.10;100916.98;103214;1256;96420;-69
2023/03/02 02:55:41;;;;;;;65.50;31.40;;;;;;;0.80;80.07;100911.40;103049;1254;138178;-69
2023/03/02 02:58:36;;;;;;;59.50;29.10;;;;;;;0.84;79.85;100913.00;103205;1256;107394;-69
2023/03/02 03:01:06;;;;;;;59.80;30.40;;;;;;;0.87;79.94;100916.82;103212;1256;138426;-69
2023/03/02 03:03:51;;;;;;;57.70;30.80;;;;;;;0.90;79.84;100916.90;103279;1254;108506;-68
2023/03/02 03:06:49;;;;;;;60.20;30.10;;;;;;;0.96;79.78;100915.79;102424;1258;1002670;-69
2023/03/02 03:09:16;;;;;;;59.50;30.10;;;;;;;0.99;79.74;100911.39;103505;1255;110232;-69
2023/03/02 03:12:14;;;;;;;57.90;30.00;;;;;;;1.01;79.60;100908.17;102533;1254;1003176;-69
2023/03/02 03:14:55;;;;;;;59.10;30.40;;;;;;;1.04;79.66;100907.88;103422;1256;97427;-69
2023/03/02 03:17:23;;;;;;;54.10;29.80;;;;;;;1.08;79.59;100911.73;103250;1254;109038;-69
2023/03/02 03:20:05;;;;;;;52.90;30.10;;;;;;;1.11;79.49;100908.70;103158;1253;138538;-69
2023/03/02 03:22:36;;;;;;;52.60;29.90;;;;;;;1.14;79.46;100912.01;103699;1254;109781;-70
2023/03/02 03:25:08;;;;;;;57.60;30.50;;;;;;;1.16;79.38;100913.41;102724;1260;381122;-69
2023/03/02 03:27:41;;;;;;;57.20;32.00;;;;;;;1.18;79.28;100907.95;104130;1254;94440;-69
2023/03/02 03:30:14;;;;;;;52.40;29.00;;;;;;;1.21;79.27;100903.20;102467;1253;1002665;-69
2023/03/02 03:32:42;;;;;;;55.20;30.50;;;;;;;1.24;79.21;100900.14;103900;1253;1003073;-69
2023/03/02 03:35:12;;;;;;;60.60;31.10;;;;;;;1.27;79.10;100899.52;103644;1254;110991;-69
2023/03/02 03:37:59;;;;;;;53.50;29.50;;;;;;;1.30;79.08;100897.34;102933;1254;1002765;-69
2023/03/02 03:40:33;;;;;;;60.40;31.90;;;;;;;1.33;79.06;100904.08;103154;1259;96524;-69
2023/03/02 03:43:03;;;;;;;51.90;29.20;;;;;;;1.35;78.98;100902.39;103203;1254;138193;-69
2023/03/02 03:45:31;;;;;;;51.40;29.70;;;;;;;1.37;79.01;100902.24;103000;1254;1002209;-69
2023/03/02 03:47:58;;;;;;;54.40;31.40;;;;;;;1.39;78.86;100900.23;102542;1254;1003116;-69
2023/03/02 03:50:26;;;;;;;51.50;29.40;;;;;;;1.41;78.89;100902.64;102401;1253;1003327;-69
2023/03/02 03:52:54;;;;;;;52.20;30.70;;;;;;;1.43;78.88;100905.27;103317;1257;97043;-68
2023/03/02 03:55:27;;;;;;;51.60;29.50;;;;;;;1.45;78.77;100907.70;103186;1258;138396;-69
2023/03/02 03:57:58;;;;;;;52.30;31.00;;;;;;;1.46;78.78;100908.75;103268;1253;96482;-70
2023/03/02 04:00:29;;;;;;;50.40;30.20;;;;;;;1.48;78.67;100907.76;103032;1253;139354;-70
2023/03/02 04:03:02;;;;;;;51.90;29.20;;;;;;;1.50;78.69;100905.38;103368;1256;106614;-70
2023/03/02 04:05:32;;;;;;;49.40;28.50;;;;;;;1.51;78.59;100904.02;103113;1258;96992;-70
2023/03/02 04:08:02;;;;;;;51.80;30.20;;;;;;;1.50;78.56;100901.27;103311;1256;138799;-70
2023/03/02 04:10:50;;;;;;;50.30;28.40;;;;;;;1.51;78.45;100900.76;103269;1256;96415;-70
2023/03/02 04:13:38;;;;;;;52.20;29.00;;;;;;;1.50;78.43;100896.46;102292;1256;1002857;-70
2023/03/02 04:16:25;;;;;;;49.90;28.50;;;;;;;1.46;78.38;100898.64;103135;1256;109326;-70
2023/03/02 04:18:53;;;;;;;51.60;29.70;;;;;;;1.45;78.48;100896.74;103096;1258;138534;-70
2023/03/02 04:21:32;;;;;;;50.80;29.10;;;;;;;1.47;78.45;100894.55;103114;1258;107721;-70
2023/03/02 04:24:10;;;;;;;55.00;30.30;;;;;;;1.48;78.46;100892.16;103318;1254;96439;-70
2023/03/02 04:26:42;;;;;;;47.30;27.50;;;;;;;1.48;78.35;100896.27;103379;1259;109388;-70
2023/03/02 04:29:24;;;;;;;48.00;28.90;;;;;;;1.50;78.43;100898.69;102476;1256;1003468;-70
2023/03/02 04:32:13;;;;;;;48.80;28.70;;;;;;;1.50;78.46;100896.80;103127;1256;139972;-69
2023/03/02 04:34:44;;;;;;;48.40;28.00;;;;;;;1.51;78.57;100899.05;103331;1254;106985;-69
2023/03/02 04:37:12;;;;;;;46.10;27.50;;;;;;;1.54;78.45;100896.17;103477;1255;138398;-69
2023/03/02 04:39:39;;;;;;;50.10;28.80;;;;;;;1.58;78.54;100900.34;103226;1254;110622;-70
2023/03/02 04:42:06;;;;;;;49.90;29.10;;;;;;;1.61;78.56;100894.38;102592;1256;1003393;-70
2023/03/02 04:44:41;;;;;;;49.20;28.70;;;;;;;1.62;78.53;100893.39;103704;1258;96385;-69
2023/03/02 04:47:09;;;;;;;50.20;28.90;;;;;;;1.64;78.53;100893.76;103776;1254;107925;-70
2023/03/02 04:49:36;;;;;;;53.00;29.30;;;;;;;1.66;78.37;100895.17;104096;1255;138297;-69
2023/03/02 04:52:04;;;;;;;47.70;29.00;;;;;;;1.68;78.40;100895.02;103710;1258;109919;-69
2023/03/02 04:54:32;;;;;;;49.20;28.70;;;;;;;1.69;78.23;100898.80;104034;1254;138517;-69
2023/03/02 04:56:59;;;;;;;49.00;28.80;;;;;;;1.71;78.16;100897.27;103264;1254;96464;-69
2023/03/02 04:59:28;;;;;;;48.30;28.10;;;;;;;1.73;78.21;100899.19;103235;1258;107835;-70
2023/03/02 05:01:57;;;;;;;51.30;28.20;;;;;;;1.73;78.12;100898.69;103471;1253;138982;-69
2023/03/02 05:04:26;;;;;;;51.40;29.40;;;;;;;1.73;78.05;100904.34;103988;1254;110104;-70
2023/03/02 05:06:57;;;;;;;51.20;29.10;;;;;;;1.75;78.24;100907.62;103303;1254;138525;-69
2023/03/02 05:09:29;;;;;;;52.90;29.20;;;;;;;1.75;77.98;100908.13;103845;1254;95819;-70
2023/03/02 05:11:58;;;;;;;55.50;29.70;;;;;;;1.77;77.97;100907.81;102848;1253;1002780;-70
2023/03/02 05:14:27;;;;;;;49.50;28.30;;;;;;;1.78;77.98;100907.14;102423;1254;1003168;-70
2023/03/02 05:16:54;;;;;;;50.50;29.60;;;;;;;1.77;78.04;100908.67;102594;1254;1003048;-70
2023/03/02 05:19:22;;;;;;;49.40;28.50;;;;;;;1.78;77.89;100911.09;103085;1254;138502;-70
2023/03/02 05:21:50;;;;;;;49.80;29.20;;;;;;;1.77;77.98;100915.36;101811;1254;1005842;-70
2023/03/02 05:24:17;;;;;;;53.60;30.70;;;;;;;1.77;77.79;100917.58;103264;1254;109687;-70
2023/03/02 05:26:45;;;;;;;54.40;29.10;;;;;;;1.76;77.92;100917.23;103258;1258;96273;-69
2023/03/02 05:29:12;;;;;;;52.10;29.70;;;;;;;1.74;77.83;100918.06;103708;1254;109019;-68
2023/03/02 05:31:42;;;;;;;50.20;28.90;;;;;;;1.73;77.85;100915.99;103241;1253;138576;-68
2023/03/02 05:34:12;;;;;;;51.40;28.80;;;;;;;1.73;77.98;100916.84;104541;1253;94648;-71
2023/03/02 05:36:39;;;;;;;50.60;28.80;;;;;;;1.72;77.85;100915.98;103372;1257;1002871;-75
2023/03/02 05:39:11;;;;;;;49.00;28.10;;;;;;;1.70;77.79;100918.52;103956;1254;96298;-76
2023/03/02 05:41:39;;;;;;;48.20;27.80;;;;;;;1.69;77.86;100920.39;103977;1254;110183;-75
2023/03/02 05:44:08;;;;;;;51.20;29.50;;;;;;;1.70;77.94;100921.44;104005;1256;138724;-70
2023/03/02 05:46:36;;;;;;;51.30;29.10;;;;;;;1.71;78.07;100923.85;103858;1254;1002302;-72
2023/03/02 05:49:04;;;;;;;48.30;28.00;;;;;;;1.74;77.94;100925.95;104567;1253;138671;-70
2023/03/02 05:51:31;;;;;;;52.70;29.20;;;;;;;1.76;77.96;100926.83;103391;1253;96444;-71
2023/03/02 05:53:58;;;;;;;52.20;28.60;;;;;;;1.78;77.79;100929.94;103300;1254;110845;-70
2023/03/02 05:56:28;;;;;;;51.50;29.30;;;;;;;1.80;77.95;100927.23;102892;1254;1002897;-70
2023/03/02 05:58:57;;;;;;;52.10;29.00;;;;;;;1.84;77.81;100930.05;103364;1257;96440;-68
2023/03/02 06:01:24;;;;;;;51.10;28.50;;;;;;;1.86;77.69;100933.15;104500;1253;139081;-70
2023/03/02 06:03:51;;;;;;;50.30;28.80;;;;;;;1.87;77.85;100935.05;104047;1254;97346;-70
2023/03/02 06:06:19;;;;;;;51.30;28.20;;;;;;;1.88;77.74;100943.81;103479;1254;109192;-69
2023/03/02 06:08:48;;;;;;;55.20;29.40;;;;;;;1.87;77.70;100940.71;103247;1256;108392;-69
2023/03/02 06:11:19;;;;;;;51.30;28.90;;;;;;;1.87;77.70;100943.64;103297;1256;96318;-69
2023/03/02 06:13:47;;;;;;;53.10;29.20;;;;;;;1.86;77.90;100945.85;103130;1254;138154;-69
2023/03/02 06:16:14;;;;;;;49.60;29.40;;;;;;;1.90;77.76;100946.07;102937;1254;1003448;-68
2023/03/02 06:18:41;;;;;;;54.30;30.00;;;;;;;1.91;77.68;100947.80;102366;1255;1002891;-70
2023/03/02 06:21:12;;;;;;;53.60;29.80;;;;;;;1.92;77.89;100951.75;103949;1253;109298;-70
2023/03/02 06:23:39;;;;;;;53.50;30.50;;;;;;;1.92;77.79;100957.58;104320;1254;95228;-69
2023/03/02 06:26:11;;;;;;;55.10;31.20;;;;;;;1.93;77.85;100965.14;103325;1253;138348;-69
2023/03/02 06:28:39;;;;;;;50.00;29.70;;;;;;;1.94;77.96;100971.50;104086;1258;95367;-68
2023/03/02 06:31:19;;;;;;;52.50;30.50;;;;;;;1.95;77.86;100971.52;103230;1256;138291;-69
2023/03/02 06:34:07;;;;;;;55.30;32.20;;;;;;;1.96;77.90;100971.87;103214;1254;107685;-69
2023/03/02 06:36:37;;;;;;;54.80;31.30;;;;;;;1.98;77.84;100975.86;103180;1254;139609;-69
2023/03/02 06:39:05;;;;;;;53.60;31.00;;;;;;;1.98;78.13;100978.94;103204;1256;106648;-69
2023/03/02 06:41:33;;;;;;;55.50;31.90;;;;;;;1.98;78.04;100977.92;103173;1258;96405;-68
2023/03/02 06:44:01;;;;;;;54.20;32.20;;;;;;;1.96;77.84;100976.67;103233;1253;1002566;-70
2023/03/02 06:46:32;;;;;;;62.30;33.80;;;;;;;1.94;78.01;100978.70;103139;1258;108689;-69
2023/03/02 06:49:02;;;;;;;59.30;33.60;;;;;;;1.96;77.96;100979.75;102235;1253;1003155;-70
2023/03/02 06:51:33;;;;;;;61.90;34.20;;;;;;;1.94;77.72;100975.45;103093;1254;108978;-72
2023/03/02 06:54:01;;;;;;;68.20;36.90;;;;;;;1.91;77.86;100971.12;104483;1253;95301;-71
2023/03/02 06:56:29;;;;;;;67.30;36.00;;;;;;;1.90;77.78;100977.61;103848;1255;140085;-69
2023/03/02 06:58:59;;;;;;;64.40;36.60;;;;;;;1.89;77.89;100977.27;103965;1254;105509;-70
2023/03/02 07:01:31;;;;;;;70.70;39.00;;;;;;;1.86;77.99;100972.95;103152;1254;139230;-69
2023/03/02 07:03:59;;;;;;;66.80;37.60;;;;;;;1.87;77.91;100978.10;103908;1255;107470;-69
2023/03/02 07:06:27;;;;;;;74.40;38.10;;;;;;;1.87;77.83;100974.66;103629;1256;138571;-68
2023/03/02 07:09:04;;;;;;;69.90;39.30;;;;;;;1.87;77.85;100978.44;103259;1253;110190;-70
2023/03/02 07:11:34;;;;;;;67.50;38.30;;;;;;;1.88;77.80;100977.59;104581;1255;107000;-70
2023/03/02 07:14:03;;;;;;;70.90;39.00;;;;;;;1.90;77.89;100975.91;102961;1253;1002974;-69
2023/03/02 07:16:35;;;;;;;69.70;38.40;;;;;;;1.93;78.16;100979.03;103287;1257;107948;-70
2023/03/02 07:19:02;;;;;;;70.10;36.50;;;;;;;1.95;78.04;100975.45;103188;1254;138499;-70
2023/03/02 07:21:30;;;;;;;71.90;39.70;;;;;;;1.98;78.15;100971.91;103343;1256;110428;-69
2023/03/02 07:24:01;;;;;;;68.90;38.60;;;;;;;1.99;77.91;100968.86;103173;1253;107183;-69
2023/03/02 07:26:28;;;;;;;65.60;35.60;;;;;;;2.00;77.85;100965.27;103202;1256;138580;-68
2023/03/02 07:28:58;;;;;;;66.00;37.60;;;;;;;2.02;77.99;100964.94;103358;1253;108577;-68
2023/03/02 07:31:35;;;;;;;71.30;39.80;;;;;;;2.02;77.88;100966.83;103163;1255;138387;-71
2023/03/02 07:34:14;;;;;;;68.90;38.40;;;;;;;2.03;77.88;100964.61;103534;1255;109178;-68
2023/03/02 07:36:41;;;;;;;66.50;38.20;;;;;;;2.04;77.83;100964.45;103061;1257;138552;-69
2023/03/02 07:39:12;;;;;;;65.40;37.50;;;;;;;2.05;77.89;100961.89;103769;1255;96454;-69
2023/03/02 07:41:43;;;;;;;66.90;37.30;;;;;;;2.07;77.69;100963.80;103220;1255;109381;-70
2023/03/02 07:44:31;;;;;;;67.10;37.10;;;;;;;2.08;77.73;100965.02;103156;1253;138328;-69
2023/03/02 07:47:02;;;;;;;64.00;35.20;;;;;;;2.08;77.88;100965.36;103253;1253;111517;-69
2023/03/02 07:49:34;;;;;;;62.30;36.30;;;;;;;2.09;77.87;100965.88;103130;1257;140781;-69
2023/03/02 07:52:04;;;;;;;62.00;35.30;;;;;;;2.11;77.88;100966.77;102482;1258;1003129;-70
2023/03/02 07:54:32;;;;;;;65.10;36.80;;;;;;;2.12;77.86;100963.87;103757;1258;138630;-70
2023/03/02 07:56:59;;;;;;;62.40;35.80;;;;;;;2.16;77.93;100968.58;103336;1258;97101;-70
2023/03/02 07:59:28;;;;;;;65.90;37.40;;;;;;;2.17;77.76;100961.21;103479;1256;110168;-70
2023/03/02 08:02:14;;;;;;;67.90;36.30;;;;;;;2.19;77.78;100958.66;103119;1258;138590;-70
2023/03/02 08:04:42;;;;;;;63.50;36.00;;;;;;;2.20;77.70;100957.81;103528;1256;96326;-70
2023/03/02 08:07:09;;;;;;;63.10;34.30;;;;;;;2.22;77.84;100956.63;103026;1256;138405;-69
2023/03/02 08:09:37;;;;;;;55.20;32.20;;;;;;;2.25;77.61;100954.44;103318;1256;96417;-69
2023/03/02 08:12:05;;;;;;;55.40;32.20;;;;;;;2.25;77.57;100952.04;103338;1256;110323;-70
2023/03/02 08:14:36;;;;;;;55.30;31.10;;;;;;;2.27;77.44;100949.83;102358;1256;1003535;-72
2023/03/02 08:17:04;;;;;;;54.30;31.10;;;;;;;2.32;77.84;100945.77;103279;1254;96426;-71
2023/03/02 08:19:34;;;;;;;49.10;29.80;;;;;;;2.39;77.64;100941.92;103140;1258;138256;-70
2023/03/02 08:22:04;;;;;;;54.70;30.90;;;;;;;2.46;77.70;100939.77;103160;1253;96583;-69
2023/03/02 08:24:34;;;;;;;56.80;31.50;;;;;;;2.52;77.71;100936.92;103086;1253;138815;-71
2023/03/02 08:27:03;;;;;;;57.10;31.00;;;;;;;2.57;77.51;100938.53;103143;1259;108588;-69
2023/03/02 08:29:31;;;;;;;57.70;32.30;;;;;;;2.63;77.41;100935.32;102778;1256;1003509;-67
2023/03/02 08:31:59;;;;;;;53.50;30.70;;;;;;;2.68;77.25;100936.92;103396;1255;138764;-66
2023/03/02 08:34:27;;;;;;;52.90;30.80;;;;;;;2.70;77.26;100934.57;104344;1256;96347;-67
2023/03/02 08:37:03;;;;;;;53.90;30.20;;;;;;;2.72;76.90;100932.19;103586;1257;138775;-66
2023/03/02 08:39:31;;;;;;;45.40;25.40;;;;;;;2.73;76.71;100934.77;103380;1257;109491;-67
2023/03/02 08:41:58;;;;;;;43.40;25.30;;;;;;;2.73;76.45;100935.45;103448;1253;96446;-66
2023/03/02 08:44:26;;;;;;;41.70;23.50;;;;;;;2.77;76.37;100939.09;103582;1258;138105;-66
2023/03/02 08:46:54;;;;;;;38.80;22.00;;;;;;;2.82;76.28;100934.50;102596;1255;1002464;-66
2023/03/02 08:49:21;;;;;;;37.80;21.10;;;;;;;2.87;76.12;100938.16;103588;1255;138526;-67
2023/03/02 08:51:52;;;;;;;38.20;21.90;;;;;;;2.90;75.82;100935.46;104062;1255;107600;-66
2023/03/02 08:54:20;;;;;;;31.90;18.30;;;;;;;2.95;75.77;100938.92;103919;1256;96474;-66
2023/03/02 08:56:48;;;;;;;35.70;19.90;;;;;;;2.96;75.65;100936.02;102396;1255;1003769;-66
2023/03/02 08:59:16;;;;;;;37.00;21.70;;;;;;;2.96;75.47;100938.77;103332;1254;96425;-67
2023/03/02 09:01:44;;;;;;;43.20;24.10;;;;;;;2.93;75.48;100938.92;103821;1253;138756;-68
2023/03/02 09:04:12;;;;;;;37.50;22.70;;;;;;;2.90;75.61;100937.86;104388;1255;106235;-68
2023/03/02 09:06:40;;;;;;;40.60;23.90;;;;;;;2.86;75.39;100937.46;103726;1258;138623;-67
2023/03/02 09:09:09;;;;;;;35.00;21.00;;;;;;;2.81;75.52;100936.55;103119;1256;108355;-67
2023/03/02 09:11:43;;;;;;;37.80;21.10;;;;;;;2.80;75.56;100935.34;102880;1258;97998;-67
2023/03/02 09:14:11;;;;;;;33.20;19.70;;;;;;;2.82;75.55;100935.87;103281;1254;138259;-67
2023/03/02 09:16:38;;;;;;;35.00;20.90;;;;;;;2.81;75.64;100938.95;104502;1256;106966;-67
2023/03/02 09:19:06;;;;;;;34.90;20.80;;;;;;;2.82;75.70;100936.23;103171;1255;138280;-67
2023/03/02 09:21:33;;;;;;;33.60;19.40;;;;;;;2.83;75.69;100940.01;102392;1253;1003272;-67
2023/03/02 09:24:01;;;;;;;26.80;16.40;;;;;;;2.84;75.54;100941.05;103119;1253;96359;-66
2023/03/02 09:26:28;;;;;;;27.20;15.20;;;;;;;2.86;75.59;100940.72;102479;1254;1002941;-66
2023/03/02 09:28:56;;;;;;;26.50;15.80;;;;;;;2.88;75.32;100934.23;103339;1253;108856;-68
2023/03/02 09:31:23;;;;;;;29.00;17.20;;;;;;;2.91;75.34;100933.92;103177;1256;138383;-68
2023/03/02 09:33:51;;;;;;;25.20;16.10;;;;;;;2.93;75.19;100932.05;103205;1258;108312;-67
2023/03/02 09:36:22;;;;;;;28.50;17.40;;;;;;;2.92;75.24;100928.27;103303;1256;96574;-66
2023/03/02 09:38:50;;;;;;;26.20;16.70;;;;;;;2.92;75.45;100931.52;103220;1256;110198;-67
2023/03/02 09:41:41;;;;;;;27.50;15.30;;;;;;;2.93;75.18;100933.59;103908;1253;108356;-67
2023/03/02 09:44:27;;;;;;;25.70;15.30;;;;;;;2.97;75.36;100934.31;103113;1258;138321;-68
2023/03/02 09:47:00;;;;;;;28.20;16.60;;;;;;;3.00;75.24;100927.47;102539;1259;1003458;-67
2023/03/02 09:49:42;;;;;;;26.30;16.30;;;;;;;3.05;75.16;100928.89;102404;1255;1003757;-68
2023/03/02 09:52:20;;;;;;;27.70;16.90;;;;;;;3.09;75.27;100929.45;104109;1256;110749;-67
2023/03/02 09:54:48;;;;;;;23.10;14.10;;;;;;;3.12;75.01;100925.52;103142;1258;138520;-68
2023/03/02 09:57:23;;;;;;;20.10;12.80;;;;;;;3.16;75.15;100921.08;103214;1258;96955;-68
2023/03/02 09:59:56;;;;;;;16.10;10.90;;;;;;;3.21;74.61;100919.06;102650;1256;1003024;-68
2023/03/02 10:02:44;;;;;;;18.10;11.00;;;;;;;3.26;74.44;100912.93;103064;1256;138449;-68
2023/03/02 10:05:18;;;;;;;19.10;11.00;;;;;;;3.33;74.50;100912.80;102529;1255;1002687;-68
2023/03/02 10:07:47;;;;;;;18.80;11.10;;;;;;;3.43;74.48;100909.11;102996;1256;138573;-69
2023/03/02 10:10:29;;;;;;;18.20;11.50;;;;;;;3.54;74.25;100910.73;103698;1258;96480;-67
2023/03/02 10:13:09;;;;;;;18.40;10.90;;;;;;;3.66;74.00;100908.23;103007;1256;138397;-66
2023/03/02 10:15:42;;;;;;;15.30;9.90;;;;;;;3.76;73.29;100908.98;103204;1255;96504;-66
2023/03/02 10:18:19;;;;;;;15.10;9.90;;;;;;;3.82;72.84;100904.22;103803;1254;109827;-66
2023/03/02 10:20:53;;;;;;;14.60;9.20;;;;;;;3.91;72.59;100904.59;103135;1256;108783;-68
2023/03/02 10:23:37;;;;;;;10.20;7.40;;;;;;;3.99;72.01;100903.62;103899;1256;96505;-66
2023/03/02 10:26:15;;;;;;;14.40;8.90;;;;;;;4.03;71.54;100903.80;103982;1258;205911;-67
2023/03/02 10:28:48;;;;;;;11.00;7.60;;;;;;;4.10;71.45;100899.87;103128;1255;96536;-66
2023/03/02 10:31:28;;;;;;;9.90;6.40;;;;;;;4.19;71.42;100896.65;103088;1256;137940;-65
2023/03/02 10:33:56;;;;;;;7.10;4.90;;;;;;;4.26;70.79;100895.46;103112;1256;108010;-68
2023/03/02 10:36:27;;;;;;;9.20;4.80;;;;;;;4.32;70.24;100893.61;102411;1258;1002796;-67
2023/03/02 10:38:56;;;;;;;8.10;5.30;;;;;;;4.39;69.78;100892.77;103176;1260;108378;-67
2023/03/02 10:41:27;;;;;;;10.80;7.00;;;;;;;4.45;69.88;100892.95;103135;1254;97807;-66
2023/03/02 10:44:15;;;;;;;13.70;7.80;;;;;;;4.50;69.55;100891.77;103088;1256;138185;-67
2023/03/02 10:46:44;;;;;;;13.00;7.70;;;;;;;4.55;69.32;100885.07;103115;1255;108881;-67
2023/03/02 10:49:29;;;;;;;12.90;7.90;;;;;;;4.62;69.50;100886.63;103122;1261;1002666;-67
2023/03/02 10:52:05;;;;;;;13.60;8.20;;;;;;;4.68;69.39;100884.07;103152;1259;107523;-67
2023/03/02 10:54:35;;;;;;;13.50;7.60;;;;;;;4.74;69.28;100879.43;104471;1254;139231;-70
2023/03/02 10:57:22;;;;;;;13.80;8.40;;;;;;;4.78;69.02;100876.33;104091;1256;111546;-67
2023/03/02 10:59:52;;;;;;;12.10;8.00;;;;;;;4.82;68.82;100873.22;103363;1256;107393;-68
2023/03/02 11:02:22;;;;;;;12.50;8.70;;;;;;;4.86;68.71;100873.77;103015;1256;138548;-67
2023/03/02 11:04:56;;;;;;;14.80;8.90;;;;;;;4.91;68.74;100874.80;103197;1256;107760;-67
2023/03/02 11:07:29;;;;;;;15.10;10.20;;;;;;;4.95;68.70;100870.83;103186;1258;138408;-68
2023/03/02 11:10:03;;;;;;;17.70;11.10;;;;;;;4.99;68.44;100867.38;103103;1258;111549;-68
2023/03/02 11:12:32;;;;;;;16.70;11.10;;;;;;;5.01;68.00;100869.62;102586;1258;1003622;-68
2023/03/02 11:15:24;;;;;;;17.00;9.90;;;;;;;4.98;67.98;100864.28;103335;1259;98302;-67
2023/03/02 11:18:02;;;;;;;17.10;10.50;;;;;;;4.96;67.58;100866.52;103194;1258;108514;-69
2023/03/02 11:20:34;;;;;;;18.50;11.20;;;;;;;4.92;67.69;100864.11;103659;1254;138919;-69
2023/03/02 11:23:18;;;;;;;15.70;10.00;;;;;;;4.90;67.74;100864.45;103663;1256;110771;-68